Weather at Austin Bergstrom International Airport

Public forecast

Using degrees Fahrenheit for public forecast. Weather courtesy of forecast.io.

Current aviation weather report (METAR) for Austin Bergstrom International Airport

Retrieved 2021/09/23 13:53 UTC (56 minutes ago):

KAUS 231353Z 00000KT 10SM CLR 16/10 A3014 RMK AO2 SLP204 T01610100

Aviation forecast (TAF) for Austin Bergstrom International Airport

Retrieved 2021/09/23 12:22 UTC (2 hours ago):

TAF KAUS 231120Z 2312/2418 11005KT P6SM FEW250